createdAt,value
2022-07-30T00:00:19.668Z,99.90
2022-07-30T00:02:52.172Z,99.90
2022-07-30T00:05:19.322Z,99.90
2022-07-30T00:07:46.357Z,99.90
2022-07-30T00:10:13.557Z,99.90
2022-07-30T00:12:40.571Z,99.90
2022-07-30T00:15:08.089Z,99.90
2022-07-30T00:17:35.020Z,99.90
2022-07-30T00:20:02.941Z,99.90
2022-07-30T00:22:31.256Z,99.90
2022-07-30T00:24:58.623Z,99.90
2022-07-30T00:27:25.564Z,99.90
2022-07-30T00:29:52.534Z,99.90
2022-07-30T00:32:19.636Z,99.90
2022-07-30T00:34:46.697Z,99.90
2022-07-30T00:37:13.559Z,99.90
2022-07-30T00:39:40.530Z,99.90
2022-07-30T00:42:07.551Z,99.90
2022-07-30T00:44:34.684Z,99.90
2022-07-30T00:47:02.030Z,99.90
2022-07-30T00:49:29.547Z,99.90
2022-07-30T00:51:56.496Z,99.90
2022-07-30T00:54:23.535Z,99.90
2022-07-30T00:56:50.775Z,99.90
2022-07-30T00:59:17.894Z,99.90
2022-07-30T01:01:46.067Z,99.90
2022-07-30T01:04:13.075Z,99.90
2022-07-30T01:06:40.633Z,99.90
2022-07-30T01:09:08.378Z,99.90
2022-07-30T01:11:40.581Z,99.90
2022-07-30T01:14:08.915Z,99.90
2022-07-30T01:16:38.052Z,99.90
2022-07-30T01:19:30.162Z,99.90
2022-07-30T01:22:09.187Z,99.90
2022-07-30T01:24:42.180Z,99.90
2022-07-30T01:27:11.486Z,99.90
2022-07-30T01:29:41.099Z,99.90
2022-07-30T01:32:10.999Z,99.90
2022-07-30T01:34:39.308Z,99.90
2022-07-30T01:37:09.045Z,99.90
2022-07-30T01:39:37.172Z,99.90
2022-07-30T01:42:07.592Z,99.90
2022-07-30T01:44:36.007Z,99.90
2022-07-30T01:47:03.829Z,99.90
2022-07-30T01:49:32.245Z,99.90
2022-07-30T01:52:00.320Z,99.90
2022-07-30T01:54:29.050Z,99.90
2022-07-30T01:56:59.262Z,99.90
2022-07-30T01:59:28.166Z,99.90
2022-07-30T02:01:55.260Z,99.90
2022-07-30T02:04:22.961Z,99.90
2022-07-30T02:07:01.375Z,99.90
2022-07-30T02:09:37.690Z,99.90
2022-07-30T02:12:25.298Z,99.90
2022-07-30T02:14:59.899Z,99.90
2022-07-30T02:17:39.534Z,99.90
2022-07-30T02:20:13.485Z,99.90
2022-07-30T02:22:43.702Z,99.90
2022-07-30T02:25:17.532Z,99.90
2022-07-30T02:27:46.598Z,99.90
2022-07-30T02:30:16.860Z,99.90
2022-07-30T02:32:45.043Z,99.90
2022-07-30T02:35:17.221Z,99.90
2022-07-30T02:37:46.976Z,99.90
2022-07-30T02:40:18.059Z,99.90
2022-07-30T02:42:53.285Z,99.90
2022-07-30T02:45:22.529Z,99.90
2022-07-30T02:47:53.644Z,99.90
2022-07-30T02:50:21.191Z,99.90
2022-07-30T02:52:49.798Z,99.90
2022-07-30T02:55:18.162Z,99.90
2022-07-30T02:57:47.055Z,99.90
2022-07-30T03:00:14.579Z,99.90
2022-07-30T03:02:43.796Z,99.90
2022-07-30T03:05:13.841Z,99.90
2022-07-30T03:07:42.102Z,99.90
2022-07-30T03:10:09.496Z,99.90
2022-07-30T03:12:38.860Z,99.90
2022-07-30T03:15:06.624Z,99.90
2022-07-30T03:17:40.250Z,99.90
2022-07-30T03:20:14.776Z,99.90
2022-07-30T03:22:43.296Z,99.90
2022-07-30T03:25:13.006Z,99.90
2022-07-30T03:27:40.743Z,99.90
2022-07-30T03:30:08.402Z,99.90
2022-07-30T03:32:36.027Z,99.90
2022-07-30T03:35:06.374Z,99.90
2022-07-30T03:37:36.986Z,99.90
2022-07-30T03:40:05.974Z,99.90
2022-07-30T03:42:34.667Z,99.90
2022-07-30T03:45:05.779Z,99.90
2022-07-30T03:47:36.029Z,99.90
2022-07-30T03:50:03.640Z,99.90
2022-07-30T03:52:34.985Z,99.90
2022-07-30T03:55:03.590Z,99.90
2022-07-30T03:57:30.786Z,99.90
2022-07-30T03:59:57.768Z,99.90
2022-07-30T04:02:25.132Z,99.90
2022-07-30T04:04:52.501Z,99.90
2022-07-30T04:07:19.584Z,99.90
2022-07-30T04:09:46.718Z,99.90
2022-07-30T04:12:14.043Z,99.90
2022-07-30T04:14:43.382Z,99.90
2022-07-30T04:17:17.379Z,99.90
2022-07-30T04:19:51.065Z,99.90
2022-07-30T04:22:23.436Z,99.90
2022-07-30T04:24:52.236Z,99.90
2022-07-30T04:27:19.775Z,99.90
2022-07-30T04:29:47.074Z,99.90
2022-07-30T04:32:14.230Z,99.90
2022-07-30T04:34:52.949Z,99.90
2022-07-30T04:37:22.330Z,99.90
2022-07-30T04:39:51.411Z,99.90
2022-07-30T04:42:18.375Z,99.90
2022-07-30T04:44:45.347Z,99.90
2022-07-30T04:47:12.898Z,99.90
2022-07-30T04:49:42.204Z,99.90
2022-07-30T04:52:10.805Z,99.90
2022-07-30T04:54:45.335Z,99.90
2022-07-30T04:57:13.748Z,99.90
2022-07-30T04:59:40.816Z,99.90
2022-07-30T05:02:08.694Z,99.90
2022-07-30T05:04:37.364Z,99.90
2022-07-30T05:07:05.634Z,99.90
2022-07-30T05:09:33.110Z,99.90
2022-07-30T05:12:00.095Z,99.90
2022-07-30T05:14:28.643Z,99.90
2022-07-30T05:16:55.774Z,99.90
2022-07-30T05:19:23.412Z,99.90
2022-07-30T05:21:50.491Z,99.90
2022-07-30T05:24:17.435Z,99.90
2022-07-30T05:26:44.620Z,99.90
2022-07-30T05:29:19.384Z,99.90
2022-07-30T05:31:47.733Z,99.90
2022-07-30T05:34:14.822Z,99.90
2022-07-30T05:36:42.871Z,99.90
2022-07-30T05:39:09.838Z,99.90
2022-07-30T05:41:36.854Z,99.90
2022-07-30T05:44:03.885Z,99.90
2022-07-30T05:46:31.371Z,99.90
2022-07-30T05:48:58.597Z,99.90
2022-07-30T05:51:25.690Z,99.90
2022-07-30T05:53:52.763Z,99.90
2022-07-30T05:56:19.791Z,99.90
2022-07-30T05:58:47.094Z,99.90
2022-07-30T06:01:14.102Z,99.90
2022-07-30T06:03:41.456Z,99.90
2022-07-30T06:06:08.820Z,99.90
2022-07-30T06:08:35.940Z,99.90
2022-07-30T06:11:03.299Z,99.90
2022-07-30T06:13:30.280Z,99.90
2022-07-30T06:15:57.339Z,99.90
2022-07-30T06:18:24.354Z,99.90
2022-07-30T06:20:52.411Z,99.90
2022-07-30T06:23:20.230Z,99.90
2022-07-30T06:25:51.111Z,99.90
2022-07-30T06:31:07.040Z,99.90
2022-07-30T06:33:33.989Z,99.90
2022-07-30T06:36:00.945Z,99.90
2022-07-30T06:38:28.435Z,99.90
2022-07-30T06:40:59.219Z,99.90
2022-07-30T06:43:29.111Z,99.90
2022-07-30T06:45:56.169Z,99.90
2022-07-30T06:48:23.426Z,99.90
2022-07-30T06:50:50.360Z,99.90
2022-07-30T06:53:17.392Z,99.90
2022-07-30T06:55:44.297Z,99.90
2022-07-30T06:58:11.275Z,99.90
2022-07-30T07:00:38.242Z,99.90
2022-07-30T07:03:09.902Z,99.90
2022-07-30T07:05:39.007Z,99.90
2022-07-30T07:08:06.055Z,99.90
2022-07-30T07:10:32.992Z,99.90
2022-07-30T07:13:00.754Z,99.90
2022-07-30T07:15:36.502Z,99.90
2022-07-30T07:18:04.908Z,99.90
2022-07-30T07:20:32.329Z,99.90
2022-07-30T07:22:59.534Z,99.90
2022-07-30T07:25:26.608Z,99.90
2022-07-30T07:28:10.850Z,99.90
2022-07-30T07:30:41.750Z,99.80
2022-07-30T07:33:09.600Z,99.40
2022-07-30T07:35:45.439Z,99.30
2022-07-30T07:38:19.993Z,99.10
2022-07-30T07:40:47.601Z,98.80
2022-07-30T07:43:14.866Z,98.90
2022-07-30T07:45:45.663Z,98.70
2022-07-30T07:48:12.999Z,98.30
2022-07-30T07:50:40.234Z,97.80
2022-07-30T07:53:07.238Z,98.00
2022-07-30T07:55:34.330Z,97.00
2022-07-30T07:58:01.940Z,97.30
2022-07-30T08:00:29.686Z,96.70
2022-07-30T08:02:56.828Z,96.10
2022-07-30T08:05:24.418Z,97.10
2022-07-30T08:07:51.325Z,96.60
2022-07-30T08:10:19.057Z,95.40
2022-07-30T08:12:46.232Z,95.00
2022-07-30T08:15:13.323Z,95.00
2022-07-30T08:17:46.991Z,94.70
2022-07-30T08:20:16.001Z,94.00
2022-07-30T08:22:43.894Z,93.70
2022-07-30T08:25:11.416Z,92.60
2022-07-30T08:27:49.076Z,91.70
2022-07-30T08:30:16.059Z,92.10
2022-07-30T08:32:43.329Z,92.40
2022-07-30T08:35:10.617Z,91.40
2022-07-30T08:37:40.912Z,90.90
2022-07-30T08:40:08.789Z,91.00
2022-07-30T08:42:36.452Z,90.80
2022-07-30T08:45:03.913Z,90.60
2022-07-30T08:47:34.693Z,87.60
2022-07-30T08:50:05.204Z,87.00
2022-07-30T08:52:37.015Z,88.60
2022-07-30T08:55:08.219Z,88.00
2022-07-30T08:57:36.178Z,87.70
2022-07-30T09:00:07.278Z,87.70
2022-07-30T09:02:34.549Z,88.00
2022-07-30T09:05:02.899Z,88.10
2022-07-30T09:07:31.847Z,86.00
2022-07-30T09:09:59.199Z,87.80
2022-07-30T09:12:37.997Z,86.50
2022-07-30T09:15:06.458Z,86.70
2022-07-30T09:17:58.530Z,87.70
2022-07-30T09:20:31.779Z,83.50
2022-07-30T09:23:01.175Z,83.70
2022-07-30T09:25:41.407Z,83.00
2022-07-30T09:28:16.280Z,83.00
2022-07-30T09:30:48.278Z,83.50
2022-07-30T09:33:16.025Z,82.30
2022-07-30T09:35:44.949Z,82.10
2022-07-30T09:38:12.572Z,81.10
2022-07-30T09:40:39.676Z,80.30
2022-07-30T09:43:11.137Z,80.30
2022-07-30T09:45:57.202Z,77.70
2022-07-30T09:48:28.617Z,78.00
2022-07-30T09:50:57.562Z,80.30
2022-07-30T09:53:24.864Z,77.00
2022-07-30T09:55:51.834Z,76.70
2022-07-30T09:58:26.937Z,78.30
2022-07-30T10:00:59.661Z,80.60
2022-07-30T10:03:34.139Z,78.40
2022-07-30T10:06:11.874Z,76.80
2022-07-30T10:08:46.112Z,76.40
2022-07-30T10:11:16.338Z,74.10
2022-07-30T10:13:45.795Z,73.60
2022-07-30T10:16:13.472Z,70.90
2022-07-30T10:18:42.950Z,71.90
2022-07-30T10:21:13.435Z,68.90
2022-07-30T10:23:44.946Z,71.20
2022-07-30T10:26:13.152Z,71.10
2022-07-30T10:28:44.688Z,67.20
2022-07-30T10:31:47.420Z,69.60
2022-07-30T10:33:59.319Z,70.30
2022-07-30T10:36:28.451Z,67.60
2022-07-30T10:38:56.906Z,69.90
2022-07-30T10:41:47.777Z,69.90
2022-07-30T10:44:33.378Z,66.90
2022-07-30T10:47:09.279Z,66.50
2022-07-30T10:49:40.912Z,65.10
2022-07-30T10:52:09.875Z,65.10
2022-07-30T10:54:41.984Z,69.40
2022-07-30T10:57:31.926Z,66.30
2022-07-30T10:59:59.761Z,65.50
2022-07-30T11:02:35.761Z,64.80
2022-07-30T11:05:18.634Z,66.20
2022-07-30T11:08:31.672Z,65.10
2022-07-30T11:10:59.996Z,67.10
2022-07-30T11:14:09.524Z,65.30
2022-07-30T11:16:37.209Z,67.40
2022-07-30T11:19:55.865Z,68.10
2022-07-30T11:22:26.096Z,64.50
2022-07-30T11:24:53.632Z,65.00
2022-07-30T11:27:42.054Z,63.70
2022-07-30T11:30:17.865Z,65.20
2022-07-30T11:32:48.881Z,63.50
2022-07-30T11:35:35.246Z,64.20
2022-07-30T11:38:11.983Z,63.60
2022-07-30T11:40:42.781Z,66.70
2022-07-30T11:43:36.254Z,66.30
2022-07-30T11:46:16.286Z,65.80
2022-07-30T11:49:05.081Z,61.80
2022-07-30T11:51:41.989Z,63.80
2022-07-30T11:54:12.985Z,61.80
2022-07-30T11:57:09.523Z,61.10
2022-07-30T11:59:54.128Z,61.80
2022-07-30T12:02:28.903Z,63.40
2022-07-30T12:04:56.070Z,63.90
2022-07-30T12:07:24.344Z,59.90
2022-07-30T12:09:51.416Z,63.70
2022-07-30T12:12:25.196Z,61.60
2022-07-30T12:14:52.036Z,60.90
2022-07-30T12:17:19.767Z,59.00
2022-07-30T12:19:49.118Z,62.30
2022-07-30T12:22:16.380Z,60.80
2022-07-30T12:24:43.423Z,60.70
2022-07-30T12:27:10.996Z,59.90
2022-07-30T12:29:38.173Z,61.20
2022-07-30T12:32:05.508Z,59.70
2022-07-30T12:34:33.794Z,59.60
2022-07-30T12:37:10.070Z,60.30
2022-07-30T12:39:37.536Z,58.90
2022-07-30T12:42:04.911Z,61.00
2022-07-30T12:44:39.266Z,59.90
2022-07-30T12:47:19.273Z,61.10
2022-07-30T12:49:49.770Z,62.90
2022-07-30T12:52:28.337Z,58.10
2022-07-30T12:55:01.984Z,57.30
2022-07-30T12:57:48.518Z,57.70
2022-07-30T13:00:16.370Z,58.00
2022-07-30T13:02:43.370Z,59.40
2022-07-30T13:05:12.155Z,59.00
2022-07-30T13:07:58.958Z,60.40
2022-07-30T13:10:30.833Z,59.70
2022-07-30T13:12:58.537Z,58.10
2022-07-30T13:15:26.395Z,61.70
2022-07-30T13:17:53.488Z,59.70
2022-07-30T13:20:21.138Z,57.70
2022-07-30T13:22:48.078Z,59.60
2022-07-30T13:25:15.154Z,57.10
2022-07-30T13:27:42.222Z,58.60
2022-07-30T13:30:10.435Z,58.50
2022-07-30T13:32:37.638Z,61.20
2022-07-30T13:35:05.112Z,59.50
2022-07-30T13:37:37.871Z,61.10
2022-07-30T13:40:06.519Z,60.50
2022-07-30T13:42:33.621Z,58.80
2022-07-30T13:45:01.025Z,59.10
2022-07-30T13:47:28.110Z,58.20
2022-07-30T13:49:55.049Z,60.20
2022-07-30T13:52:21.991Z,58.70
2022-07-30T13:54:51.264Z,58.70
2022-07-30T13:57:18.378Z,58.10
2022-07-30T13:59:45.272Z,60.80
2022-07-30T14:02:12.831Z,60.10
2022-07-30T14:04:40.208Z,60.00
2022-07-30T14:07:07.568Z,60.20
2022-07-30T14:09:36.168Z,60.90
2022-07-30T14:12:14.057Z,60.70
2022-07-30T14:14:41.137Z,60.50
2022-07-30T14:17:08.328Z,62.40
2022-07-30T14:19:35.353Z,60.70
2022-07-30T14:22:02.497Z,58.70
2022-07-30T14:24:29.819Z,58.20
2022-07-30T14:26:59.981Z,60.30
2022-07-30T14:29:28.110Z,63.00
2022-07-30T14:31:55.585Z,60.20
2022-07-30T14:34:22.987Z,58.40
2022-07-30T14:36:49.945Z,60.20
2022-07-30T14:39:16.884Z,60.60
2022-07-30T14:41:43.760Z,61.30
2022-07-30T14:44:12.611Z,61.10
2022-07-30T14:46:51.515Z,60.30
2022-07-30T14:49:20.832Z,59.20
2022-07-30T14:51:47.878Z,60.50
2022-07-30T14:54:14.932Z,61.80
2022-07-30T14:56:41.925Z,60.60
2022-07-30T14:59:09.079Z,60.50
2022-07-30T15:01:36.229Z,58.60
2022-07-30T15:04:03.740Z,59.80
2022-07-30T15:06:30.929Z,58.30
2022-07-30T15:08:58.026Z,60.20
2022-07-30T15:11:25.657Z,60.80
2022-07-30T15:13:52.576Z,58.90
2022-07-30T15:16:20.196Z,59.40
2022-07-30T15:18:47.508Z,59.20
2022-07-30T15:21:14.418Z,59.90
2022-07-30T15:23:41.431Z,58.70
2022-07-30T15:26:08.390Z,60.50
2022-07-30T15:28:35.347Z,59.40
2022-07-30T15:31:02.978Z,58.70
2022-07-30T15:33:30.522Z,60.20
2022-07-30T15:36:03.994Z,61.20
2022-07-30T15:38:30.876Z,59.30
2022-07-30T15:40:57.764Z,59.70
2022-07-30T15:43:25.781Z,59.30
2022-07-30T15:45:56.117Z,58.90
2022-07-30T15:48:27.226Z,59.50
2022-07-30T15:51:01.733Z,58.90
2022-07-30T15:53:30.279Z,58.40
2022-07-30T15:55:58.257Z,57.40
2022-07-30T15:58:25.208Z,57.70
2022-07-30T16:00:52.453Z,59.20
2022-07-30T16:03:19.485Z,59.00
2022-07-30T16:05:52.091Z,58.40
2022-07-30T16:08:20.834Z,60.00
2022-07-30T16:10:48.804Z,58.90
2022-07-30T16:13:16.072Z,59.60
2022-07-30T16:15:43.028Z,58.20
2022-07-30T16:18:10.502Z,59.30
2022-07-30T16:20:37.511Z,57.80
2022-07-30T16:23:07.055Z,58.90
2022-07-30T16:25:37.323Z,57.10
2022-07-30T16:28:04.291Z,58.30
2022-07-30T16:30:31.339Z,57.30
2022-07-30T16:32:58.333Z,60.10
2022-07-30T16:35:25.247Z,57.80
2022-07-30T16:37:53.391Z,58.60
2022-07-30T16:40:20.325Z,60.40
2022-07-30T16:42:47.384Z,58.30
2022-07-30T16:45:15.166Z,57.00
2022-07-30T16:47:42.064Z,57.90
2022-07-30T16:50:09.812Z,58.20
2022-07-30T16:52:37.168Z,59.40
2022-07-30T16:55:04.447Z,59.80
2022-07-30T16:57:31.385Z,58.90
2022-07-30T16:59:58.538Z,58.60
2022-07-30T17:02:25.707Z,59.20
2022-07-30T17:04:52.834Z,59.50
2022-07-30T17:07:19.657Z,59.40
2022-07-30T17:09:52.021Z,59.50
2022-07-30T17:12:25.288Z,60.00
2022-07-30T17:14:54.049Z,60.30
2022-07-30T17:17:21.117Z,60.20
2022-07-30T17:19:48.078Z,60.50
2022-07-30T17:22:14.957Z,60.10
2022-07-30T17:24:42.080Z,60.40
2022-07-30T17:27:09.114Z,61.50
2022-07-30T17:29:48.386Z,61.60
2022-07-30T17:32:18.207Z,61.10
2022-07-30T17:34:45.672Z,60.70
2022-07-30T17:37:12.563Z,60.90
2022-07-30T17:40:26.912Z,59.80
2022-07-30T17:42:26.351Z,60.40
2022-07-30T17:44:53.410Z,60.40
2022-07-30T17:47:20.734Z,59.70
2022-07-30T17:49:47.703Z,59.90
2022-07-30T17:52:14.586Z,60.50
2022-07-30T17:54:41.814Z,61.40
2022-07-30T17:57:09.393Z,60.50
2022-07-30T17:59:36.471Z,60.70
2022-07-30T18:02:04.764Z,59.40
2022-07-30T18:04:32.509Z,60.10
2022-07-30T18:06:59.470Z,60.30
2022-07-30T18:09:26.653Z,59.90
2022-07-30T18:11:54.019Z,60.50
2022-07-30T18:14:23.955Z,60.70
2022-07-30T18:16:52.357Z,60.50
2022-07-30T18:19:22.827Z,60.40
2022-07-30T18:21:54.650Z,61.50
2022-07-30T18:24:24.668Z,61.20
2022-07-30T18:26:52.145Z,61.70
2022-07-30T18:29:19.061Z,62.70
2022-07-30T18:31:48.288Z,62.30
2022-07-30T18:34:15.330Z,62.00
2022-07-30T18:36:42.260Z,61.90
2022-07-30T18:39:09.333Z,62.30
2022-07-30T18:41:36.499Z,61.80
2022-07-30T18:44:03.884Z,62.30
2022-07-30T18:46:30.808Z,62.00
2022-07-30T18:48:59.232Z,62.60
2022-07-30T18:51:33.917Z,62.30
2022-07-30T18:54:01.036Z,63.20
2022-07-30T18:56:27.988Z,62.90
2022-07-30T18:58:54.950Z,63.30
2022-07-30T19:01:22.826Z,63.30
2022-07-30T19:03:50.279Z,64.40
2022-07-30T19:06:18.173Z,64.40
2022-07-30T19:08:48.516Z,64.10
2022-07-30T19:11:15.590Z,65.10
2022-07-30T19:13:42.550Z,64.80
2022-07-30T19:16:10.541Z,64.90
2022-07-30T19:18:37.415Z,65.40
2022-07-30T19:21:04.477Z,65.70
2022-07-30T19:23:31.425Z,65.90
2022-07-30T19:25:58.412Z,66.80
2022-07-30T19:28:25.445Z,67.80
2022-07-30T19:30:52.465Z,67.10
2022-07-30T19:33:19.408Z,68.00
2022-07-30T19:35:47.252Z,68.30
2022-07-30T19:41:01.454Z,68.00
2022-07-30T19:43:30.241Z,68.60
2022-07-30T19:46:00.549Z,69.00
2022-07-30T19:48:29.446Z,69.10
2022-07-30T19:51:01.480Z,69.60
2022-07-30T19:53:31.596Z,70.10
2022-07-30T19:56:04.611Z,71.60
2022-07-30T19:58:37.833Z,72.20
2022-07-30T20:01:08.333Z,72.80
2022-07-30T20:03:37.076Z,73.70
2022-07-30T20:06:07.561Z,74.10
2022-07-30T20:08:36.172Z,74.40
2022-07-30T20:11:07.467Z,74.20
2022-07-30T20:13:44.686Z,74.90
2022-07-30T20:16:14.853Z,75.30
2022-07-30T20:18:42.874Z,74.00
2022-07-30T20:21:15.106Z,74.00
2022-07-30T20:23:44.580Z,73.90
2022-07-30T20:26:14.098Z,74.10
2022-07-30T20:28:45.765Z,74.80
2022-07-30T20:31:13.276Z,74.40
2022-07-30T20:33:40.789Z,74.40
2022-07-30T20:36:09.909Z,73.80
2022-07-30T20:38:38.806Z,76.00
2022-07-30T20:41:09.940Z,76.30
2022-07-30T20:43:51.536Z,76.30
2022-07-30T20:46:20.731Z,77.00
2022-07-30T20:48:51.433Z,77.70
2022-07-30T20:51:18.705Z,77.70
2022-07-30T20:53:46.184Z,78.00
2022-07-30T20:56:14.934Z,78.80
2022-07-30T20:58:45.337Z,78.50
2022-07-30T21:01:17.435Z,80.60
2022-07-30T21:03:48.060Z,83.20
2022-07-30T21:06:16.604Z,82.10
2022-07-30T21:08:43.607Z,82.40
2022-07-30T21:11:12.631Z,81.90
2022-07-30T21:13:39.813Z,81.90
2022-07-30T21:16:15.521Z,83.80
2022-07-30T21:18:50.250Z,83.20
2022-07-30T21:21:30.847Z,83.60
2022-07-30T21:24:06.490Z,83.80
2022-07-30T21:26:42.262Z,84.60
2022-07-30T21:29:09.842Z,84.80
2022-07-30T21:32:01.228Z,84.60
2022-07-30T21:34:26.352Z,84.60
2022-07-30T21:36:53.825Z,85.40
2022-07-30T21:39:28.638Z,85.50
2022-07-30T21:41:56.344Z,87.40
2022-07-30T21:44:23.825Z,86.70
2022-07-30T21:46:50.854Z,87.30
2022-07-30T21:49:17.879Z,88.80
2022-07-30T21:51:44.877Z,88.30
2022-07-30T21:54:13.878Z,87.40
2022-07-30T21:56:44.055Z,88.10
2022-07-30T21:59:11.432Z,88.40
2022-07-30T22:01:38.970Z,88.90
2022-07-30T22:04:14.686Z,89.30
2022-07-30T22:06:44.056Z,90.00
2022-07-30T22:09:19.657Z,90.30
2022-07-30T22:12:01.920Z,90.70
2022-07-30T22:14:34.012Z,90.70
2022-07-30T22:17:04.429Z,90.70
2022-07-30T22:19:31.747Z,91.60
2022-07-30T22:22:00.174Z,92.00
2022-07-30T22:24:32.077Z,92.40
2022-07-30T22:27:01.554Z,92.70
2022-07-30T22:29:34.267Z,92.00
2022-07-30T22:32:04.104Z,93.00
2022-07-30T22:34:31.574Z,93.50
2022-07-30T22:36:58.888Z,93.50
2022-07-30T22:39:32.279Z,93.70
2022-07-30T22:42:13.154Z,94.10
2022-07-30T22:44:41.547Z,94.20
2022-07-30T22:47:20.893Z,94.70
2022-07-30T22:49:52.724Z,94.90
2022-07-30T22:52:25.512Z,95.00
2022-07-30T22:54:55.202Z,95.40
2022-07-30T22:57:22.975Z,95.30
2022-07-30T22:59:58.138Z,95.30
2022-07-30T23:02:27.887Z,95.40
2022-07-30T23:04:56.246Z,95.90
2022-07-30T23:07:23.605Z,96.30
2022-07-30T23:10:04.195Z,96.60
2022-07-30T23:12:14.684Z,68.50
2022-07-30T23:12:47.342Z,96.80
2022-07-30T23:15:14.895Z,97.00
2022-07-30T23:17:41.910Z,97.40
2022-07-30T23:20:11.392Z,97.50
2022-07-30T23:22:38.661Z,97.90
2022-07-30T23:25:07.936Z,98.40
2022-07-30T23:27:34.909Z,98.60
2022-07-30T23:30:02.075Z,98.90
2022-07-30T23:32:29.183Z,99.00
2022-07-30T23:34:56.177Z,99.10
2022-07-30T23:37:23.012Z,98.70
2022-07-30T23:39:50.079Z,98.30
2022-07-30T23:42:17.216Z,98.20
2022-07-30T23:44:44.198Z,98.40
2022-07-30T23:47:11.244Z,98.40
2022-07-30T23:49:38.325Z,98.30
2022-07-30T23:52:05.352Z,98.30
2022-07-30T23:54:32.371Z,98.40
2022-07-30T23:56:59.343Z,98.70
2022-07-30T23:59:40.633Z,98.40
